createdAt,value
2018-03-07T00:00:21.910Z,40.80
2018-03-07T00:01:21.926Z,39.80
2018-03-07T00:02:21.945Z,39.60
2018-03-07T00:03:21.965Z,39.80
2018-03-07T00:04:21.985Z,41.80
2018-03-07T00:05:21.999Z,39.50
2018-03-07T00:06:22.020Z,39.40
2018-03-07T00:07:22.045Z,38.90
2018-03-07T00:08:22.065Z,40.30
2018-03-07T00:09:22.078Z,39.20
2018-03-07T00:10:22.096Z,40.50
2018-03-07T00:11:22.124Z,38.90
2018-03-07T00:12:22.142Z,40.30
2018-03-07T00:13:22.156Z,39.80
2018-03-07T00:14:22.180Z,39.50
2018-03-07T00:15:22.196Z,39.60
2018-03-07T00:16:22.215Z,39.20
2018-03-07T00:17:22.235Z,39.40
2018-03-07T00:18:22.263Z,41.00
2018-03-07T00:19:22.281Z,39.20
2018-03-07T00:20:22.294Z,39.70
2018-03-07T00:21:22.319Z,39.50
2018-03-07T00:22:22.339Z,42.10
2018-03-07T00:23:22.353Z,38.70
2018-03-07T00:24:22.377Z,39.90
2018-03-07T00:25:22.391Z,41.30
2018-03-07T00:26:22.416Z,41.00
2018-03-07T00:27:22.432Z,40.00
2018-03-07T00:28:22.457Z,41.70
2018-03-07T00:29:22.469Z,42.00
2018-03-07T00:30:22.494Z,40.70
2018-03-07T00:31:22.512Z,40.80
2018-03-07T00:32:22.529Z,41.30
2018-03-07T00:33:22.547Z,41.10
2018-03-07T00:34:22.574Z,41.30
2018-03-07T00:35:22.594Z,41.30
2018-03-07T00:36:22.609Z,41.60
2018-03-07T00:37:22.634Z,40.50
2018-03-07T00:38:22.646Z,41.90
2018-03-07T00:39:22.672Z,41.20
2018-03-07T00:40:22.686Z,41.40
2018-03-07T00:41:22.712Z,41.60
2018-03-07T00:42:22.728Z,41.40
2018-03-07T00:43:22.755Z,42.00
2018-03-07T00:44:22.765Z,40.80
2018-03-07T00:45:22.790Z,42.20
2018-03-07T00:46:22.803Z,43.10
2018-03-07T00:47:22.830Z,40.20
2018-03-07T00:48:22.846Z,41.90
2018-03-07T00:49:22.862Z,41.90
2018-03-07T00:50:22.883Z,42.90
2018-03-07T00:51:22.902Z,42.60
2018-03-07T00:52:22.922Z,42.10
2018-03-07T00:53:22.946Z,41.60
2018-03-07T00:54:22.960Z,41.50
2018-03-07T00:55:22.987Z,42.20
2018-03-07T00:56:23.007Z,41.40
2018-03-07T00:57:23.020Z,41.30
2018-03-07T00:58:23.041Z,42.30
2018-03-07T00:59:23.065Z,41.50
2018-03-07T01:00:23.085Z,41.60
2018-03-07T01:01:23.098Z,42.00
2018-03-07T01:02:23.123Z,41.40
2018-03-07T01:03:23.137Z,43.00
2018-03-07T01:04:23.159Z,42.40
2018-03-07T01:05:23.182Z,42.10
2018-03-07T01:06:23.201Z,43.10
2018-03-07T01:07:23.223Z,42.40
2018-03-07T01:08:23.245Z,43.70
2018-03-07T01:09:23.262Z,42.20
2018-03-07T01:10:23.280Z,44.50
2018-03-07T01:11:23.295Z,42.90
2018-03-07T01:12:23.316Z,43.60
2018-03-07T01:13:23.340Z,42.00
2018-03-07T01:14:23.361Z,42.00
2018-03-07T01:15:23.385Z,42.40
2018-03-07T01:16:23.407Z,42.70
2018-03-07T01:17:23.420Z,42.50
2018-03-07T01:18:23.439Z,42.50
2018-03-07T01:19:23.465Z,44.90
2018-03-07T01:20:23.479Z,42.90
2018-03-07T01:21:23.503Z,43.40
2018-03-07T01:22:23.519Z,46.30
2018-03-07T01:23:23.543Z,43.80
2018-03-07T01:24:23.558Z,45.10
2018-03-07T01:25:23.582Z,44.20
2018-03-07T01:26:23.596Z,43.70
2018-03-07T01:27:23.617Z,44.90
2018-03-07T01:28:23.641Z,44.40
2018-03-07T01:29:23.655Z,43.60
2018-03-07T01:30:23.674Z,44.70
2018-03-07T01:31:23.703Z,44.00
2018-03-07T01:32:23.720Z,44.20
2018-03-07T01:33:23.740Z,44.50
2018-03-07T01:34:23.754Z,45.50
2018-03-07T01:35:23.778Z,42.80
2018-03-07T01:36:23.807Z,44.70
2018-03-07T01:37:23.812Z,44.60
2018-03-07T01:38:23.831Z,45.80
2018-03-07T01:39:23.857Z,44.80
2018-03-07T01:40:23.877Z,44.50
2018-03-07T01:41:23.890Z,43.90
2018-03-07T01:42:23.915Z,43.70
2018-03-07T01:43:23.929Z,44.60
2018-03-07T01:44:23.951Z,44.80
2018-03-07T01:45:23.974Z,43.70
2018-03-07T01:46:23.990Z,44.70
2018-03-07T01:47:24.016Z,44.30
2018-03-07T01:48:24.029Z,45.50
2018-03-07T01:49:24.049Z,44.90
2018-03-07T01:50:24.067Z,46.10
2018-03-07T01:51:24.093Z,46.40
2018-03-07T01:52:24.107Z,47.30
2018-03-07T01:53:24.133Z,45.70
2018-03-07T01:54:24.147Z,46.30
2018-03-07T01:55:24.172Z,45.10
2018-03-07T01:56:24.187Z,46.00
2018-03-07T01:57:24.210Z,46.90
2018-03-07T01:58:24.230Z,45.40
2018-03-07T01:59:24.252Z,45.70
2018-03-07T02:00:24.270Z,47.00
2018-03-07T02:01:24.283Z,46.40
2018-03-07T02:02:24.310Z,46.80
2018-03-07T02:03:24.323Z,48.30
2018-03-07T02:04:24.350Z,48.20
2018-03-07T02:05:24.368Z,47.70
2018-03-07T02:06:24.387Z,48.50
2018-03-07T02:07:24.403Z,49.20
2018-03-07T02:08:24.431Z,48.90
2018-03-07T02:09:24.442Z,46.90
2018-03-07T02:10:24.466Z,49.40
2018-03-07T02:11:24.480Z,50.70
2018-03-07T02:12:24.507Z,47.20
2018-03-07T02:13:24.520Z,49.90
2018-03-07T02:14:24.544Z,48.50
2018-03-07T02:15:24.560Z,48.50
2018-03-07T02:16:24.584Z,46.30
2018-03-07T02:17:24.599Z,46.30
2018-03-07T02:18:24.618Z,46.70
2018-03-07T02:19:24.638Z,47.10
2018-03-07T02:20:24.665Z,47.90
2018-03-07T02:21:24.681Z,47.20
2018-03-07T02:22:24.697Z,47.70
2018-03-07T02:23:24.721Z,47.10
2018-03-07T02:24:24.741Z,48.80
2018-03-07T02:25:24.756Z,46.50
2018-03-07T02:26:24.776Z,48.00
2018-03-07T02:27:24.800Z,46.90
2018-03-07T02:28:24.820Z,47.40
2018-03-07T02:29:24.836Z,49.20
2018-03-07T02:30:24.854Z,46.70
2018-03-07T02:31:24.874Z,47.90
2018-03-07T02:32:24.899Z,46.80
2018-03-07T02:33:24.911Z,47.50
2018-03-07T02:34:24.934Z,47.00
2018-03-07T02:35:24.962Z,47.60
2018-03-07T02:36:24.979Z,46.90
2018-03-07T02:37:24.997Z,47.20
2018-03-07T02:38:25.016Z,49.10
2018-03-07T02:39:25.031Z,48.70
2018-03-07T02:40:25.052Z,46.80
2018-03-07T02:41:25.080Z,46.30
2018-03-07T02:42:25.096Z,45.90
2018-03-07T02:43:25.114Z,47.60
2018-03-07T02:44:25.130Z,47.60
2018-03-07T02:45:25.156Z,47.90
2018-03-07T02:46:25.170Z,46.20
2018-03-07T02:47:25.189Z,46.40
2018-03-07T02:48:25.208Z,46.80
2018-03-07T02:49:25.234Z,47.90
2018-03-07T02:50:25.246Z,46.80
2018-03-07T02:51:25.278Z,48.10
2018-03-07T02:52:25.285Z,48.60
2018-03-07T02:53:25.306Z,48.60
2018-03-07T02:54:25.326Z,48.10
2018-03-07T02:55:25.350Z,46.80
2018-03-07T02:56:25.372Z,48.40
2018-03-07T02:57:25.385Z,47.00
2018-03-07T02:58:25.405Z,47.20
2018-03-07T02:59:25.429Z,47.30
2018-03-07T03:00:25.450Z,47.10
2018-03-07T03:01:25.462Z,47.00
2018-03-07T03:02:25.482Z,48.60
2018-03-07T03:03:25.510Z,47.60
2018-03-07T03:04:25.529Z,47.10
2018-03-07T03:05:25.543Z,46.50
2018-03-07T03:06:25.567Z,47.30
2018-03-07T03:07:25.587Z,47.40
2018-03-07T03:08:25.606Z,46.90
2018-03-07T03:09:25.627Z,45.10
2018-03-07T03:10:25.640Z,48.90
2018-03-07T03:11:25.665Z,49.70
2018-03-07T03:12:25.680Z,48.10
2018-03-07T03:13:25.703Z,47.40
2018-03-07T03:14:25.717Z,47.80
2018-03-07T03:15:25.743Z,49.70
2018-03-07T03:16:25.757Z,48.90
2018-03-07T03:17:25.781Z,49.10
2018-03-07T03:18:25.801Z,47.90
2018-03-07T03:19:25.816Z,51.00
2018-03-07T03:20:25.841Z,50.70
2018-03-07T03:21:25.859Z,48.60
2018-03-07T03:22:25.873Z,50.10
2018-03-07T03:23:25.894Z,52.30
2018-03-07T03:24:25.914Z,49.90
2018-03-07T03:25:25.937Z,50.40
2018-03-07T03:26:25.956Z,49.60
2018-03-07T03:27:25.970Z,50.30
2018-03-07T03:28:25.996Z,49.10
2018-03-07T03:29:26.009Z,50.70
2018-03-07T03:30:26.038Z,51.80
2018-03-07T03:31:26.050Z,50.10
2018-03-07T03:32:26.074Z,49.00
2018-03-07T03:33:26.087Z,48.50
2018-03-07T03:34:26.105Z,52.50
2018-03-07T03:35:26.132Z,51.50
2018-03-07T03:36:26.145Z,51.00
2018-03-07T03:37:26.173Z,50.10
2018-03-07T03:38:26.182Z,50.20
2018-03-07T03:39:26.209Z,51.30
2018-03-07T03:40:26.223Z,49.40
2018-03-07T03:41:26.246Z,52.20
2018-03-07T03:42:26.266Z,51.10
2018-03-07T03:43:26.282Z,51.60
2018-03-07T03:44:26.305Z,52.00
2018-03-07T03:45:26.317Z,51.40
2018-03-07T03:46:26.343Z,52.20
2018-03-07T03:47:26.357Z,51.80
2018-03-07T03:48:26.384Z,52.90
2018-03-07T03:49:26.394Z,53.10
2018-03-07T03:50:26.415Z,53.60
2018-03-07T03:51:26.439Z,52.40
2018-03-07T03:52:26.459Z,54.50
2018-03-07T03:53:26.471Z,53.30
2018-03-07T03:54:26.492Z,53.20
2018-03-07T03:55:26.516Z,53.90
2018-03-07T03:56:26.535Z,55.80
2018-03-07T03:57:26.552Z,54.60
2018-03-07T03:58:26.568Z,54.30
2018-03-07T03:59:26.594Z,55.30
2018-03-07T04:00:26.607Z,53.50
2018-03-07T04:01:26.634Z,53.10
2018-03-07T04:02:26.645Z,53.10
2018-03-07T04:03:26.671Z,53.80
2018-03-07T04:04:26.684Z,54.20
2018-03-07T04:05:26.707Z,53.30
2018-03-07T04:06:26.722Z,53.00
2018-03-07T04:07:26.746Z,53.50
2018-03-07T04:08:26.767Z,52.90
2018-03-07T04:09:26.779Z,54.80
2018-03-07T04:10:26.797Z,53.30
2018-03-07T04:11:26.823Z,53.30
2018-03-07T04:12:26.843Z,51.80
2018-03-07T04:13:26.856Z,54.10
2018-03-07T04:14:26.880Z,53.40
2018-03-07T04:15:26.895Z,56.30
2018-03-07T04:16:26.914Z,53.70
2018-03-07T04:17:26.938Z,53.60
2018-03-07T04:18:26.958Z,54.80
2018-03-07T04:19:26.974Z,55.70
2018-03-07T04:20:26.990Z,55.30
2018-03-07T04:21:27.015Z,54.80
2018-03-07T04:22:27.035Z,53.30
2018-03-07T04:23:27.054Z,55.10
2018-03-07T04:24:27.073Z,53.30
2018-03-07T04:25:27.133Z,55.60
2018-03-07T04:26:27.112Z,53.90
2018-03-07T04:27:27.135Z,53.40
2018-03-07T04:28:27.151Z,52.50
2018-03-07T04:29:27.170Z,55.00
2018-03-07T04:30:27.189Z,55.00
2018-03-07T04:31:27.209Z,55.90
2018-03-07T04:32:27.228Z,55.40
2018-03-07T04:33:27.241Z,55.30
2018-03-07T04:34:27.261Z,54.30
2018-03-07T04:35:27.285Z,54.10
2018-03-07T04:36:27.305Z,53.60
2018-03-07T04:37:27.317Z,52.60
2018-03-07T04:38:27.338Z,53.50
2018-03-07T04:39:27.364Z,50.80
2018-03-07T04:40:27.377Z,57.00
2018-03-07T04:41:27.401Z,55.20
2018-03-07T04:42:27.415Z,55.70
2018-03-07T04:43:27.440Z,55.00
2018-03-07T04:44:27.455Z,56.40
2018-03-07T04:45:27.477Z,53.70
2018-03-07T04:46:27.492Z,56.80
2018-03-07T04:47:27.516Z,57.50
2018-03-07T04:48:27.530Z,54.90
2018-03-07T04:49:27.555Z,57.20
2018-03-07T04:50:27.569Z,56.70
2018-03-07T04:51:27.594Z,56.30
2018-03-07T04:52:27.608Z,56.50
2018-03-07T04:53:27.632Z,59.20
2018-03-07T04:54:27.646Z,58.40
2018-03-07T04:55:27.670Z,57.80
2018-03-07T04:56:27.690Z,57.20
2018-03-07T04:57:27.703Z,59.40
2018-03-07T04:58:27.723Z,57.00
2018-03-07T04:59:27.748Z,56.70
2018-03-07T05:00:27.767Z,58.30
2018-03-07T05:01:27.781Z,54.90
2018-03-07T05:02:27.800Z,59.40
2018-03-07T05:03:27.824Z,58.50
2018-03-07T05:04:27.847Z,57.30
2018-03-07T05:05:27.856Z,56.80
2018-03-07T05:06:27.880Z,56.90
2018-03-07T05:07:27.901Z,58.40
2018-03-07T05:08:27.921Z,56.40
2018-03-07T05:09:27.934Z,56.50
2018-03-07T05:10:27.954Z,56.40
2018-03-07T05:11:27.979Z,56.60
2018-03-07T05:12:27.998Z,57.10
2018-03-07T05:13:28.010Z,56.30
2018-03-07T05:14:28.030Z,59.70
2018-03-07T05:15:28.055Z,56.40
2018-03-07T05:16:28.074Z,57.00
2018-03-07T05:17:28.087Z,59.10
2018-03-07T05:18:28.107Z,55.40
2018-03-07T05:19:28.130Z,55.60
2018-03-07T05:20:28.151Z,56.20
2018-03-07T05:21:28.165Z,56.00
2018-03-07T05:22:28.187Z,57.70
2018-03-07T05:23:28.209Z,54.20
2018-03-07T05:24:28.230Z,54.00
2018-03-07T05:25:28.241Z,52.80
2018-03-07T05:26:28.267Z,54.70
2018-03-07T05:27:28.280Z,55.60
2018-03-07T05:28:28.305Z,55.30
2018-03-07T05:29:28.318Z,54.50
2018-03-07T05:30:28.342Z,53.10
2018-03-07T05:31:28.356Z,50.60
2018-03-07T05:32:28.381Z,49.10
2018-03-07T05:33:28.395Z,50.80
2018-03-07T05:34:28.419Z,50.00
2018-03-07T05:35:28.435Z,49.50
2018-03-07T05:36:28.458Z,52.00
2018-03-07T05:37:28.480Z,55.30
2018-03-07T05:38:28.499Z,52.30
2018-03-07T05:39:28.510Z,53.10
2018-03-07T05:40:28.536Z,52.50
2018-03-07T05:41:28.547Z,52.00
2018-03-07T05:42:28.572Z,52.80
2018-03-07T05:43:28.592Z,50.20
2018-03-07T05:44:28.612Z,51.90
2018-03-07T05:45:28.623Z,50.80
2018-03-07T05:46:28.648Z,50.20
2018-03-07T05:47:28.663Z,51.70
2018-03-07T05:48:28.690Z,50.60
2018-03-07T05:49:28.706Z,49.20
2018-03-07T05:50:28.720Z,47.40
2018-03-07T05:51:28.744Z,47.30
2018-03-07T05:52:28.759Z,48.50
2018-03-07T05:53:28.783Z,49.30
2018-03-07T05:54:28.796Z,46.70
2018-03-07T05:55:28.821Z,47.40
2018-03-07T05:56:28.835Z,46.90
2018-03-07T05:57:28.859Z,47.00
2018-03-07T05:58:28.872Z,47.10
2018-03-07T05:59:28.892Z,47.70
2018-03-07T06:00:28.920Z,49.10
2018-03-07T06:01:28.929Z,48.90
2018-03-07T06:02:28.948Z,52.40
2018-03-07T06:03:28.972Z,48.00
2018-03-07T06:04:28.991Z,50.80
2018-03-07T06:05:29.009Z,51.30
2018-03-07T06:06:29.028Z,47.10
2018-03-07T06:07:29.042Z,49.20
2018-03-07T06:08:29.066Z,47.80
2018-03-07T06:09:29.082Z,53.90
2018-03-07T06:10:29.102Z,51.20
2018-03-07T06:11:29.125Z,50.80
2018-03-07T06:12:29.142Z,49.80
2018-03-07T06:13:29.153Z,50.20
2018-03-07T06:14:29.177Z,50.10
2018-03-07T06:15:29.190Z,51.60
2018-03-07T06:16:29.217Z,52.10
2018-03-07T06:17:29.240Z,54.00
2018-03-07T06:18:29.247Z,54.10
2018-03-07T06:19:29.268Z,55.00
2018-03-07T06:20:29.294Z,54.10
2018-03-07T06:21:29.311Z,55.00
2018-03-07T06:22:29.325Z,54.20
2018-03-07T06:23:29.338Z,55.30
2018-03-07T06:24:29.358Z,54.20
2018-03-07T06:25:29.380Z,54.50
2018-03-07T06:26:29.399Z,56.10
2018-03-07T06:27:29.412Z,53.70
2018-03-07T06:28:29.430Z,56.10
2018-03-07T06:29:29.453Z,55.70
2018-03-07T06:30:29.472Z,57.50
2018-03-07T06:31:29.484Z,56.10
2018-03-07T06:32:29.504Z,58.40
2018-03-07T06:33:29.805Z,57.00
2018-03-07T06:34:29.540Z,55.90
2018-03-07T06:35:29.558Z,60.50
2018-03-07T06:36:29.608Z,60.90
2018-03-07T06:37:29.595Z,55.70
2018-03-07T06:38:29.618Z,59.60
2018-03-07T06:39:29.638Z,62.80
2018-03-07T06:40:29.656Z,60.80
2018-03-07T06:41:29.669Z,62.80
2018-03-07T06:42:29.689Z,59.30
2018-03-07T06:43:29.711Z,63.00
2018-03-07T06:44:29.766Z,61.30
2018-03-07T06:45:29.744Z,61.60
2018-03-07T06:46:29.794Z,60.50
2018-03-07T06:47:29.784Z,59.10
2018-03-07T06:48:29.802Z,61.30
2018-03-07T06:49:29.815Z,60.10
2018-03-07T06:50:29.841Z,61.00
2018-03-07T06:51:29.852Z,63.10
2018-03-07T06:52:29.877Z,63.30
2018-03-07T06:53:29.894Z,62.80
2018-03-07T06:54:29.912Z,61.90
2018-03-07T06:55:29.925Z,60.60
2018-03-07T06:56:29.948Z,64.10
2018-03-07T06:57:29.965Z,68.00
2018-03-07T06:58:29.986Z,63.60
2018-03-07T06:59:29.998Z,63.30
2018-03-07T07:00:30.022Z,65.40
2018-03-07T07:01:30.035Z,65.40
2018-03-07T07:02:30.052Z,65.40
2018-03-07T07:03:30.072Z,63.00
2018-03-07T07:04:30.097Z,67.90
2018-03-07T07:05:30.144Z,66.30
2018-03-07T07:06:30.127Z,68.00
2018-03-07T07:07:30.150Z,64.30
2018-03-07T07:08:30.170Z,63.50
2018-03-07T07:09:30.236Z,61.10
2018-03-07T07:10:30.201Z,61.70
2018-03-07T07:11:30.225Z,59.80
2018-03-07T07:12:30.248Z,59.50
2018-03-07T07:13:30.256Z,60.80
2018-03-07T07:14:30.274Z,59.70
2018-03-07T07:15:30.299Z,58.30
2018-03-07T07:16:30.318Z,58.30
2018-03-07T07:17:30.330Z,60.60
2018-03-07T07:18:30.349Z,59.70
2018-03-07T07:19:30.367Z,59.40
2018-03-07T07:20:30.391Z,59.10
2018-03-07T07:21:30.409Z,59.70
2018-03-07T07:22:30.428Z,58.90
2018-03-07T07:23:30.448Z,57.80
2018-03-07T07:24:30.467Z,56.50
2018-03-07T07:25:30.484Z,56.10
2018-03-07T07:26:30.498Z,56.70
2018-03-07T07:27:30.523Z,59.10
2018-03-07T07:28:30.545Z,57.00
2018-03-07T07:29:30.560Z,58.50
2018-03-07T07:30:30.578Z,55.90
2018-03-07T07:31:30.598Z,55.20
2018-03-07T07:32:30.621Z,54.80
2018-03-07T07:33:30.628Z,55.40
2018-03-07T07:34:30.657Z,53.40
2018-03-07T07:35:30.667Z,55.80
2018-03-07T07:36:30.688Z,53.80
2018-03-07T07:37:30.730Z,53.20
2018-03-07T07:38:30.725Z,52.70
2018-03-07T07:39:30.746Z,52.50
2018-03-07T07:40:30.764Z,51.80
2018-03-07T07:41:30.783Z,52.80
2018-03-07T07:42:30.803Z,51.30
2018-03-07T07:43:30.829Z,49.50
2018-03-07T07:44:30.841Z,51.80
2018-03-07T07:45:30.865Z,49.40
2018-03-07T07:46:30.883Z,47.40
2018-03-07T07:47:30.905Z,48.60
2018-03-07T07:48:30.918Z,47.60
2018-03-07T07:49:30.943Z,48.50
2018-03-07T07:50:30.962Z,47.90
2018-03-07T07:51:30.977Z,49.80
2018-03-07T07:52:31.002Z,47.50
2018-03-07T07:53:31.019Z,46.40
2018-03-07T07:54:31.082Z,46.80
2018-03-07T07:55:31.056Z,46.40
2018-03-07T07:56:31.081Z,46.60
2018-03-07T07:57:31.095Z,43.70
2018-03-07T07:58:31.122Z,45.60
2018-03-07T07:59:31.135Z,43.00
2018-03-07T08:00:31.160Z,42.10
2018-03-07T08:01:31.173Z,40.90
2018-03-07T08:02:31.199Z,43.70
2018-03-07T08:03:31.215Z,41.10
2018-03-07T08:04:31.239Z,39.90
2018-03-07T08:05:31.256Z,38.10
2018-03-07T08:06:31.273Z,38.50
2018-03-07T08:07:31.301Z,40.00
2018-03-07T08:08:31.319Z,38.80
2018-03-07T08:09:31.332Z,37.60
2018-03-07T08:10:31.354Z,38.40
2018-03-07T08:11:31.379Z,37.90
2018-03-07T08:12:31.400Z,35.50
2018-03-07T08:13:31.413Z,33.30
2018-03-07T08:14:31.434Z,34.80
2018-03-07T08:15:31.462Z,32.60
2018-03-07T08:16:31.483Z,35.20
2018-03-07T08:17:31.495Z,34.80
2018-03-07T08:18:31.519Z,35.40
2018-03-07T08:19:31.541Z,34.70
2018-03-07T08:20:31.565Z,33.80
2018-03-07T08:21:31.576Z,35.20
2018-03-07T08:22:31.596Z,35.70
2018-03-07T08:23:31.621Z,36.20
2018-03-07T08:24:31.643Z,35.60
2018-03-07T08:25:31.656Z,36.70
2018-03-07T08:26:31.682Z,37.00
2018-03-07T08:27:31.704Z,38.40
2018-03-07T08:28:31.726Z,38.60
2018-03-07T08:29:31.739Z,37.20
2018-03-07T08:30:31.761Z,34.70
2018-03-07T08:31:31.792Z,35.80
2018-03-07T08:32:31.812Z,34.70
2018-03-07T08:33:31.828Z,33.60
2018-03-07T08:34:31.851Z,33.00
2018-03-07T08:35:31.879Z,33.50
2018-03-07T08:36:31.903Z,33.60
2018-03-07T08:37:31.921Z,32.10
2018-03-07T08:38:31.944Z,32.70
2018-03-07T08:39:31.975Z,31.00
2018-03-07T08:40:31.994Z,30.50
2018-03-07T08:41:32.023Z,30.80
2018-03-07T08:42:32.042Z,31.10
2018-03-07T08:43:32.076Z,31.40
2018-03-07T08:44:32.095Z,32.40
2018-03-07T08:45:32.156Z,30.70
2018-03-07T08:46:32.146Z,31.80
2018-03-07T08:47:32.178Z,30.50
2018-03-07T08:48:32.200Z,29.90
2018-03-07T08:49:32.230Z,30.50
2018-03-07T08:50:32.252Z,30.00
2018-03-07T08:51:32.284Z,28.10
2018-03-07T08:52:32.306Z,28.70
2018-03-07T08:53:32.339Z,29.20
2018-03-07T08:54:32.360Z,30.90
2018-03-07T08:55:32.392Z,31.20
2018-03-07T08:56:32.420Z,28.20
2018-03-07T08:57:32.440Z,25.50
2018-03-07T08:58:32.467Z,27.40
2018-03-07T08:59:32.502Z,28.50
2018-03-07T09:00:32.530Z,27.90
2018-03-07T09:01:32.552Z,28.60
2018-03-07T09:02:32.585Z,27.70
2018-03-07T09:03:32.607Z,29.50
2018-03-07T09:04:32.642Z,29.30
2018-03-07T09:05:32.666Z,27.20
2018-03-07T09:06:32.699Z,24.50
2018-03-07T09:07:32.724Z,25.20
2018-03-07T09:08:32.759Z,25.00
2018-03-07T09:09:32.782Z,25.70
2018-03-07T09:10:32.826Z,26.00
2018-03-07T09:11:32.846Z,23.50
2018-03-07T09:12:32.871Z,23.10
2018-03-07T09:13:32.908Z,23.10
2018-03-07T09:14:32.937Z,24.40
2018-03-07T09:15:33.005Z,26.80
2018-03-07T09:16:32.994Z,25.60
2018-03-07T09:17:33.030Z,24.00
2018-03-07T09:18:33.055Z,22.70
2018-03-07T09:19:33.092Z,24.40
2018-03-07T09:20:33.122Z,23.80
2018-03-07T09:21:33.148Z,23.80
2018-03-07T09:22:33.178Z,24.40
2018-03-07T09:23:33.215Z,24.60
2018-03-07T09:24:33.249Z,23.90
2018-03-07T09:25:33.271Z,24.20
2018-03-07T09:26:33.305Z,22.40
2018-03-07T09:27:33.343Z,20.60
2018-03-07T09:28:33.372Z,20.80
2018-03-07T09:29:33.405Z,20.50
2018-03-07T09:30:33.433Z,21.00
2018-03-07T09:31:33.471Z,20.00
2018-03-07T09:32:33.497Z,18.50
2018-03-07T09:33:33.533Z,18.40
2018-03-07T09:34:33.560Z,18.40
2018-03-07T09:35:33.598Z,17.50
2018-03-07T09:36:33.631Z,16.90
2018-03-07T09:37:33.657Z,18.60
2018-03-07T09:38:33.693Z,20.70
2018-03-07T09:39:33.729Z,21.10
2018-03-07T09:40:33.765Z,21.20
2018-03-07T09:41:33.786Z,21.90
2018-03-07T09:42:33.826Z,19.70
2018-03-07T09:43:33.855Z,19.30
2018-03-07T09:44:33.892Z,20.30
2018-03-07T09:45:33.917Z,18.50
2018-03-07T09:46:34.476Z,18.80
2018-03-07T09:47:33.983Z,18.10
2018-03-07T09:48:34.021Z,18.20
2018-03-07T09:49:34.047Z,16.90
2018-03-07T09:50:34.095Z,16.90
2018-03-07T09:51:34.120Z,16.20
2018-03-07T09:52:34.147Z,13.80
2018-03-07T09:53:34.187Z,13.30
2018-03-07T09:54:34.212Z,13.40
2018-03-07T09:55:34.252Z,10.10
2018-03-07T09:56:34.323Z,10.70
2018-03-07T09:57:34.317Z,10.90
2018-03-07T09:58:34.345Z,11.80
2018-03-07T09:59:34.378Z,11.70
2018-03-07T10:00:34.411Z,10.30
2018-03-07T10:01:34.448Z,11.70
2018-03-07T10:02:34.476Z,11.80
2018-03-07T10:03:34.515Z,11.70
2018-03-07T10:04:34.544Z,11.20
2018-03-07T10:05:34.576Z,11.40
2018-03-07T10:06:34.617Z,11.10
2018-03-07T10:07:34.642Z,10.80
2018-03-07T10:08:34.685Z,9.30
2018-03-07T10:09:34.709Z,9.60
2018-03-07T10:10:34.748Z,9.80
2018-03-07T10:11:34.776Z,10.30
2018-03-07T10:12:34.815Z,11.20
2018-03-07T10:13:34.842Z,11.70
2018-03-07T10:14:34.898Z,14.10
2018-03-07T10:15:34.909Z,15.30
2018-03-07T10:16:35.008Z,14.60
2018-03-07T10:17:34.976Z,15.20
2018-03-07T10:18:35.009Z,14.40
2018-03-07T10:19:35.051Z,13.70
2018-03-07T10:20:35.086Z,15.10
2018-03-07T10:21:35.114Z,15.60
2018-03-07T10:22:35.149Z,16.50
2018-03-07T10:23:35.177Z,16.10
2018-03-07T10:24:35.213Z,15.80
2018-03-07T10:25:35.250Z,16.30
2018-03-07T10:26:35.291Z,14.50
2018-03-07T10:27:35.312Z,14.70
2018-03-07T10:28:35.350Z,14.60
2018-03-07T10:29:35.385Z,15.40
2018-03-07T10:30:35.412Z,14.20
2018-03-07T10:31:35.447Z,14.10
2018-03-07T10:32:35.486Z,14.30
2018-03-07T10:33:35.514Z,14.30
2018-03-07T10:34:35.548Z,14.60
2018-03-07T10:35:35.587Z,14.90
2018-03-07T10:36:35.623Z,15.10
2018-03-07T10:37:35.655Z,35.10
2018-03-07T10:38:35.692Z,29.50
2018-03-07T10:39:35.735Z,13.20
2018-03-07T10:40:35.757Z,14.60
2018-03-07T10:41:35.790Z,14.50
2018-03-07T10:42:35.825Z,13.20
2018-03-07T10:43:35.853Z,14.70
2018-03-07T10:44:35.888Z,14.70
2018-03-07T10:45:35.925Z,13.90
2018-03-07T10:46:35.958Z,12.70
2018-03-07T10:47:35.993Z,13.50
2018-03-07T10:48:36.029Z,12.60
2018-03-07T10:49:36.056Z,12.70
2018-03-07T10:50:36.095Z,11.40
2018-03-07T10:51:36.130Z,10.50
2018-03-07T10:52:36.163Z,13.00
2018-03-07T10:53:36.195Z,14.10
2018-03-07T10:54:36.224Z,13.70
2018-03-07T10:55:36.263Z,13.80
2018-03-07T10:56:36.292Z,13.40
2018-03-07T10:57:36.333Z,14.10
2018-03-07T10:58:36.358Z,15.10
2018-03-07T10:59:36.397Z,15.10
2018-03-07T11:00:36.427Z,15.10
2018-03-07T11:01:36.463Z,15.00
2018-03-07T11:02:36.491Z,14.10
2018-03-07T11:03:36.526Z,14.00
2018-03-07T11:04:36.563Z,14.30
2018-03-07T11:05:36.589Z,13.30
2018-03-07T11:06:36.624Z,13.50
2018-03-07T11:07:36.662Z,13.50
2018-03-07T11:08:36.694Z,12.10
2018-03-07T11:09:36.731Z,12.50
2018-03-07T11:10:36.765Z,11.30
2018-03-07T11:11:36.786Z,10.00
2018-03-07T11:12:36.825Z,10.60
2018-03-07T11:13:36.852Z,10.60
2018-03-07T11:14:36.924Z,10.10
2018-03-07T11:15:36.917Z,9.60
2018-03-07T11:16:36.957Z,9.80
2018-03-07T11:17:36.983Z,10.50
2018-03-07T11:18:37.022Z,10.80
2018-03-07T11:19:37.054Z,10.60
2018-03-07T11:20:37.098Z,9.70
2018-03-07T11:21:37.120Z,10.30
2018-03-07T11:22:37.152Z,11.10
2018-03-07T11:23:37.179Z,10.50
2018-03-07T11:24:37.214Z,11.30
2018-03-07T11:25:37.242Z,11.80
2018-03-07T11:26:37.282Z,11.50
2018-03-07T11:27:37.309Z,12.00
2018-03-07T11:28:37.373Z,10.90
2018-03-07T11:29:37.379Z,12.50
2018-03-07T11:30:37.413Z,11.80
2018-03-07T11:31:37.440Z,10.80
2018-03-07T11:32:37.472Z,11.10
2018-03-07T11:33:37.510Z,11.70
2018-03-07T11:34:37.536Z,11.80
2018-03-07T11:35:37.575Z,11.90
2018-03-07T11:36:37.608Z,12.00
2018-03-07T11:37:37.632Z,11.20
2018-03-07T11:38:37.671Z,11.40
2018-03-07T11:39:37.706Z,12.10
2018-03-07T11:40:37.736Z,13.40
2018-03-07T11:41:37.768Z,11.70
2018-03-07T11:42:37.804Z,11.50
2018-03-07T11:43:37.830Z,11.00
2018-03-07T11:44:37.860Z,11.00
2018-03-07T11:45:37.898Z,11.90
2018-03-07T11:46:37.930Z,11.30
2018-03-07T11:47:37.960Z,11.70
2018-03-07T11:48:37.991Z,11.50
2018-03-07T11:49:38.027Z,11.70
2018-03-07T11:50:38.061Z,11.10
2018-03-07T11:51:38.088Z,10.50
2018-03-07T11:52:38.130Z,10.20
2018-03-07T11:53:38.154Z,10.30
2018-03-07T11:54:38.188Z,10.90
2018-03-07T11:55:38.221Z,11.20
2018-03-07T11:56:38.254Z,11.70
2018-03-07T11:57:38.281Z,10.80
2018-03-07T11:58:38.313Z,11.50
2018-03-07T11:59:38.353Z,12.00
2018-03-07T12:00:38.379Z,11.90
2018-03-07T12:01:38.418Z,11.90
2018-03-07T12:02:38.444Z,11.40
2018-03-07T12:03:38.481Z,12.70
2018-03-07T12:04:38.507Z,11.80
2018-03-07T12:05:38.544Z,12.50
2018-03-07T12:06:38.570Z,12.00
2018-03-07T12:07:38.608Z,12.50
2018-03-07T12:08:38.635Z,14.10
2018-03-07T12:09:38.674Z,13.60
2018-03-07T12:10:38.696Z,13.60
2018-03-07T12:11:38.736Z,13.80
2018-03-07T12:12:38.756Z,14.00
2018-03-07T12:13:38.793Z,14.90
2018-03-07T12:14:38.817Z,15.60
2018-03-07T12:15:38.851Z,15.40
2018-03-07T12:16:38.881Z,14.00
2018-03-07T12:17:38.916Z,16.20
2018-03-07T12:18:38.937Z,16.80
2018-03-07T12:19:38.979Z,15.50
2018-03-07T12:20:38.996Z,17.10
2018-03-07T12:21:39.018Z,16.20
2018-03-07T12:22:39.051Z,15.80
2018-03-07T12:23:39.077Z,17.80
2018-03-07T12:24:39.107Z,18.80
2018-03-07T12:25:39.128Z,19.40
2018-03-07T12:26:39.161Z,18.90
2018-03-07T12:27:39.183Z,18.30
2018-03-07T12:28:39.215Z,17.80
2018-03-07T12:29:39.235Z,20.10
2018-03-07T12:30:39.264Z,19.50
2018-03-07T12:31:39.295Z,18.70
2018-03-07T12:32:39.385Z,20.10
2018-03-07T12:33:39.347Z,20.10
2018-03-07T12:34:39.368Z,20.90
2018-03-07T12:35:39.399Z,20.10
2018-03-07T12:36:39.421Z,19.50
2018-03-07T12:37:39.452Z,21.90
2018-03-07T12:38:39.470Z,21.40
2018-03-07T12:39:39.505Z,19.40
2018-03-07T12:40:39.528Z,21.50
2018-03-07T12:41:39.546Z,21.40
2018-03-07T12:42:39.573Z,19.40
2018-03-07T12:43:39.602Z,20.30
2018-03-07T12:44:39.627Z,20.30
2018-03-07T12:45:39.646Z,22.70
2018-03-07T12:46:39.677Z,21.40
2018-03-07T12:47:39.751Z,18.60
2018-03-07T12:48:39.726Z,19.90
2018-03-07T12:49:39.744Z,19.50
2018-03-07T12:50:39.775Z,18.70
2018-03-07T12:51:39.793Z,18.50
2018-03-07T12:52:39.823Z,17.40